createdAt,value
2022-09-04T00:00:58.166Z,98.57
2022-09-04T00:04:45.785Z,98.82
2022-09-04T00:08:42.436Z,99.92
2022-09-04T00:12:29.695Z,99.57
2022-09-04T00:16:15.689Z,100.00
2022-09-04T00:20:02.815Z,100.00
2022-09-04T00:23:51.987Z,100.00
2022-09-04T00:27:43.516Z,100.00
2022-09-04T00:31:29.315Z,100.00
2022-09-04T00:35:15.524Z,100.00
2022-09-04T00:39:06.534Z,99.95
2022-09-04T00:43:08.990Z,100.00
2022-09-04T00:47:07.298Z,100.00
2022-09-04T00:51:15.124Z,100.00
2022-09-04T00:55:10.769Z,100.00
2022-09-04T00:59:05.455Z,100.00
2022-09-04T01:03:02.244Z,100.00
2022-09-04T01:06:51.188Z,100.00
2022-09-04T01:10:42.492Z,100.00
2022-09-04T01:14:34.398Z,100.00
2022-09-04T01:18:25.602Z,99.79
2022-09-04T01:22:17.650Z,99.78
2022-09-04T01:26:08.860Z,99.87
2022-09-04T01:30:00.130Z,100.00
2022-09-04T01:33:47.569Z,100.00
2022-09-04T01:37:42.003Z,100.00
2022-09-04T01:41:29.367Z,100.00
2022-09-04T01:45:12.315Z,100.00
2022-09-04T01:49:05.496Z,100.00
2022-09-04T01:52:56.631Z,100.00
2022-09-04T01:56:45.483Z,100.00
2022-09-04T02:00:31.072Z,100.00
2022-09-04T02:04:24.142Z,100.00
2022-09-04T02:08:18.628Z,100.00
2022-09-04T02:12:10.031Z,100.00
2022-09-04T02:16:01.534Z,100.00
2022-09-04T02:19:58.951Z,100.00
2022-09-04T02:23:46.809Z,100.00
2022-09-04T02:27:36.599Z,100.00
2022-09-04T02:31:27.238Z,100.00
2022-09-04T02:35:16.729Z,100.00
2022-09-04T02:39:05.025Z,100.00
2022-09-04T02:42:59.699Z,100.00
2022-09-04T02:46:51.854Z,100.00
2022-09-04T02:50:46.178Z,100.00
2022-09-04T02:54:40.415Z,100.00
2022-09-04T02:58:33.689Z,100.00
2022-09-04T03:02:23.001Z,100.00
2022-09-04T03:06:10.091Z,100.00
2022-09-04T03:09:55.656Z,100.00
2022-09-04T03:13:43.024Z,100.00
2022-09-04T03:17:31.018Z,100.00
2022-09-04T03:21:19.280Z,100.00
2022-09-04T03:25:13.206Z,100.00
2022-09-04T03:29:03.326Z,100.00
2022-09-04T03:32:52.363Z,100.00
2022-09-04T03:36:41.263Z,100.00
2022-09-04T03:40:35.161Z,100.00
2022-09-04T03:44:25.125Z,100.00
2022-09-04T03:48:21.228Z,100.00
2022-09-04T03:52:08.040Z,100.00
2022-09-04T03:56:06.908Z,100.00
2022-09-04T04:00:04.742Z,100.00
2022-09-04T04:04:09.157Z,100.00
2022-09-04T04:08:00.825Z,100.00
2022-09-04T04:12:13.411Z,100.00
2022-09-04T04:16:06.777Z,100.00
2022-09-04T04:20:03.309Z,100.00
2022-09-04T04:24:15.399Z,100.00
2022-09-04T04:28:17.145Z,100.00
2022-09-04T04:32:21.031Z,100.00
2022-09-04T04:36:10.074Z,100.00
2022-09-04T04:39:58.197Z,100.00
2022-09-04T04:43:57.587Z,100.00
2022-09-04T04:48:00.151Z,100.00
2022-09-04T04:51:52.610Z,100.00
2022-09-04T04:55:40.407Z,100.00
2022-09-04T04:59:27.066Z,100.00
2022-09-04T05:03:20.229Z,100.00
2022-09-04T05:07:08.549Z,100.00
2022-09-04T05:10:54.895Z,100.00
2022-09-04T05:14:45.856Z,100.00
2022-09-04T05:18:33.270Z,100.00
2022-09-04T05:22:21.389Z,100.00
2022-09-04T05:26:12.738Z,100.00
2022-09-04T05:30:01.547Z,100.00
2022-09-04T05:33:57.254Z,100.00
2022-09-04T05:37:45.043Z,100.00
2022-09-04T05:41:37.862Z,100.00
2022-09-04T05:45:25.417Z,100.00
2022-09-04T05:49:17.701Z,100.00
2022-09-04T05:53:42.016Z,100.00
2022-09-04T05:57:35.795Z,100.00
2022-09-04T06:01:38.917Z,100.00
2022-09-04T06:05:30.997Z,100.00
2022-09-04T06:09:29.602Z,100.00
2022-09-04T06:13:32.760Z,99.24
2022-09-04T06:17:29.826Z,98.85
2022-09-04T06:21:51.974Z,98.92
2022-09-04T06:26:01.534Z,98.14
2022-09-04T06:29:53.294Z,97.73
2022-09-04T06:33:47.115Z,97.38
2022-09-04T06:37:38.322Z,96.96
2022-09-04T06:41:35.597Z,97.52
2022-09-04T06:45:26.853Z,97.39
2022-09-04T06:49:13.299Z,97.47
2022-09-04T06:53:06.232Z,97.28
2022-09-04T06:57:24.862Z,96.93
2022-09-04T07:01:11.823Z,95.65
2022-09-04T07:05:04.099Z,93.48
2022-09-04T07:09:01.174Z,91.04
2022-09-04T07:13:13.173Z,90.79
2022-09-04T07:17:05.087Z,90.69
2022-09-04T07:20:55.637Z,88.94
2022-09-04T07:24:53.503Z,87.94
2022-09-04T07:28:47.263Z,86.59
2022-09-04T07:32:35.730Z,86.44
2022-09-04T07:36:25.306Z,87.08
2022-09-04T07:40:16.095Z,86.35
2022-09-04T07:44:04.539Z,86.19
2022-09-04T07:47:55.085Z,82.87
2022-09-04T07:51:44.329Z,83.18
2022-09-04T07:55:37.493Z,82.55
2022-09-04T07:59:36.861Z,82.42
2022-09-04T08:03:31.600Z,83.36
2022-09-04T08:07:20.878Z,81.82
2022-09-04T08:11:18.039Z,79.70
2022-09-04T08:15:10.836Z,79.81
2022-09-04T08:19:06.978Z,79.24
2022-09-04T08:23:05.587Z,78.47
2022-09-04T08:26:59.798Z,79.01
2022-09-04T08:30:50.546Z,79.63
2022-09-04T08:34:54.705Z,80.21
2022-09-04T08:38:56.598Z,79.62
2022-09-04T08:43:06.652Z,76.71
2022-09-04T08:47:24.184Z,76.57
2022-09-04T08:51:34.534Z,74.26
2022-09-04T08:55:34.720Z,75.43
2022-09-04T08:59:42.673Z,75.30
2022-09-04T09:03:51.675Z,74.10
2022-09-04T09:07:51.377Z,75.54
2022-09-04T09:11:50.041Z,75.70
2022-09-04T09:15:57.809Z,74.31
2022-09-04T09:19:55.635Z,72.94
2022-09-04T09:24:09.924Z,72.54
2022-09-04T09:28:34.217Z,70.97
2022-09-04T09:32:46.912Z,68.71
2022-09-04T09:37:02.834Z,67.70
2022-09-04T09:41:06.396Z,68.61
2022-09-04T09:45:06.224Z,66.60
2022-09-04T09:49:16.887Z,64.96
2022-09-04T09:53:29.709Z,64.85
2022-09-04T09:57:47.951Z,65.41
2022-09-04T10:01:50.026Z,64.58
2022-09-04T10:05:46.040Z,64.49
2022-09-04T10:09:49.906Z,64.83
2022-09-04T10:14:24.431Z,64.03
2022-09-04T10:18:43.906Z,63.31
2022-09-04T10:23:04.092Z,60.41
2022-09-04T10:27:19.889Z,61.80
2022-09-04T10:31:47.302Z,62.87
2022-09-04T10:35:34.321Z,59.16
2022-09-04T10:39:42.947Z,58.26
2022-09-04T10:43:47.069Z,57.44
2022-09-04T10:47:45.525Z,58.04
2022-09-04T10:52:10.645Z,56.72
2022-09-04T10:56:16.719Z,56.68
2022-09-04T11:00:09.310Z,56.81
2022-09-04T11:04:13.892Z,57.23
2022-09-04T11:08:26.199Z,56.99
2022-09-04T11:12:35.369Z,56.82
2022-09-04T11:16:57.835Z,56.65
2022-09-04T11:21:25.635Z,56.84
2022-09-04T11:25:47.185Z,57.36
2022-09-04T11:29:41.265Z,58.06
2022-09-04T11:34:10.123Z,59.27
2022-09-04T11:38:20.967Z,59.78
2022-09-04T11:42:28.964Z,58.10
2022-09-04T11:46:36.465Z,57.10
2022-09-04T11:50:38.656Z,55.82
2022-09-04T11:54:51.889Z,55.96
2022-09-04T11:59:16.577Z,56.03
2022-09-04T12:03:30.977Z,55.26
2022-09-04T12:07:28.294Z,54.55
2022-09-04T12:11:38.877Z,53.82
2022-09-04T12:15:54.635Z,53.96
2022-09-04T12:20:24.096Z,53.80
2022-09-04T12:24:23.174Z,52.88
2022-09-04T12:28:27.709Z,51.99
2022-09-04T12:32:27.716Z,50.97
2022-09-04T12:36:43.254Z,50.40
2022-09-04T12:40:34.516Z,49.54
2022-09-04T12:44:26.714Z,49.65
2022-09-04T12:48:14.964Z,47.83
2022-09-04T12:52:05.609Z,48.77
2022-09-04T12:56:03.092Z,46.61
2022-09-04T12:59:57.471Z,45.61
2022-09-04T13:03:47.300Z,45.90
2022-09-04T13:07:41.002Z,45.12
2022-09-04T13:11:37.256Z,45.34
2022-09-04T13:15:28.327Z,43.49
2022-09-04T13:19:17.327Z,44.85
2022-09-04T13:23:12.556Z,46.35
2022-09-04T13:27:15.848Z,46.41
2022-09-04T13:31:05.541Z,43.73
2022-09-04T13:35:03.907Z,43.72
2022-09-04T13:39:16.429Z,44.97
2022-09-04T13:43:34.327Z,47.42
2022-09-04T13:47:22.929Z,46.73
2022-09-04T13:51:18.955Z,45.42
2022-09-04T13:55:04.223Z,42.34
2022-09-04T13:58:51.471Z,43.57
2022-09-04T14:02:39.073Z,43.38
2022-09-04T14:06:23.339Z,41.27
2022-09-04T14:10:11.723Z,42.74
2022-09-04T14:14:30.923Z,41.46
2022-09-04T14:18:25.195Z,40.30
2022-09-04T14:22:16.651Z,39.63
2022-09-04T14:26:04.890Z,40.12
2022-09-04T14:30:03.469Z,37.77
2022-09-04T14:33:53.529Z,36.70
2022-09-04T14:38:00.343Z,37.85
2022-09-04T14:42:02.365Z,39.35
2022-09-04T14:46:07.044Z,35.91
2022-09-04T14:49:53.495Z,35.38
2022-09-04T14:53:36.398Z,34.73
2022-09-04T14:57:23.867Z,34.67
2022-09-04T15:01:10.155Z,35.07
2022-09-04T15:05:01.220Z,35.06
2022-09-04T15:08:45.161Z,35.41
2022-09-04T15:12:30.468Z,35.32
2022-09-04T15:16:28.954Z,34.02
2022-09-04T15:20:17.009Z,34.18
2022-09-04T15:24:07.702Z,33.09
2022-09-04T15:27:54.591Z,33.27
2022-09-04T15:31:38.793Z,32.53
2022-09-04T15:35:32.848Z,32.64
2022-09-04T15:39:29.189Z,32.16
2022-09-04T15:43:18.500Z,32.34
2022-09-04T15:47:06.840Z,32.72
2022-09-04T15:51:01.280Z,32.30
2022-09-04T15:55:03.962Z,31.93
2022-09-04T15:58:53.297Z,31.08
2022-09-04T16:02:42.935Z,30.96
2022-09-04T16:06:32.279Z,31.39
2022-09-04T16:10:18.046Z,32.29
2022-09-04T16:14:02.449Z,32.18
2022-09-04T16:17:47.050Z,32.55
2022-09-04T16:21:40.542Z,32.95
2022-09-04T16:25:28.974Z,32.61
2022-09-04T16:29:26.803Z,33.09
2022-09-04T16:33:27.377Z,33.13
2022-09-04T16:37:15.114Z,32.87
2022-09-04T16:41:01.582Z,33.62
2022-09-04T16:44:46.443Z,34.03
2022-09-04T16:48:34.922Z,34.85
2022-09-04T16:52:34.451Z,36.81
2022-09-04T16:56:26.266Z,37.25
2022-09-04T17:00:11.527Z,36.37
2022-09-04T17:04:13.778Z,37.70
2022-09-04T17:08:03.098Z,36.09
2022-09-04T17:11:55.766Z,37.75
2022-09-04T17:15:53.899Z,39.34
2022-09-04T17:19:40.090Z,42.00
2022-09-04T17:29:00.827Z,42.49
2022-09-04T17:29:14.871Z,42.31
2022-09-04T17:31:51.039Z,42.53
2022-09-04T17:40:42.242Z,42.79
2022-09-04T17:40:49.127Z,43.23
2022-09-04T17:44:10.241Z,40.83
2022-09-04T17:48:02.201Z,41.78
2022-09-04T17:51:51.636Z,42.23
2022-09-04T17:55:49.452Z,41.57
2022-09-04T17:59:38.975Z,42.23
2022-09-04T18:03:29.701Z,42.51
2022-09-04T18:07:21.900Z,43.01
2022-09-04T18:11:24.019Z,45.63
2022-09-04T18:15:12.990Z,46.44
2022-09-04T18:19:18.495Z,47.60
2022-09-04T18:23:14.437Z,47.93
2022-09-04T18:27:03.947Z,48.24
2022-09-04T18:37:07.651Z,48.82
2022-09-04T18:37:24.548Z,48.36
2022-09-04T18:39:09.221Z,48.18
2022-09-04T18:50:30.863Z,49.88
2022-09-04T18:50:40.488Z,49.08
2022-09-04T18:51:31.355Z,50.83
2022-09-04T18:55:18.232Z,51.66
2022-09-04T18:59:07.766Z,52.52
2022-09-04T19:02:54.416Z,52.73
2022-09-04T19:06:39.117Z,53.17
2022-09-04T19:10:25.615Z,53.61
2022-09-04T19:14:15.336Z,54.22
2022-09-04T19:18:01.207Z,54.65
2022-09-04T19:21:57.846Z,55.00
2022-09-04T19:25:44.381Z,55.39
2022-09-04T19:29:35.731Z,55.87
2022-09-04T19:33:31.778Z,56.20
2022-09-04T19:39:37.081Z,56.90
2022-09-04T19:45:55.021Z,57.19
2022-09-04T19:46:16.448Z,57.37
2022-09-04T19:53:19.281Z,57.33
2022-09-04T19:53:57.655Z,58.09
2022-09-04T19:57:44.028Z,58.44
2022-09-04T20:01:33.608Z,58.98
2022-09-04T20:05:21.546Z,59.40
2022-09-04T20:09:11.788Z,59.96
2022-09-04T20:13:01.888Z,60.28
2022-09-04T20:16:53.610Z,60.41
2022-09-04T20:20:46.076Z,60.99
2022-09-04T20:24:36.078Z,61.48
2022-09-04T20:28:24.577Z,61.79
2022-09-04T20:32:13.215Z,62.30
2022-09-04T20:36:03.874Z,62.62
2022-09-04T20:39:49.738Z,63.16
2022-09-04T20:43:49.635Z,63.38
2022-09-04T20:52:44.598Z,64.06
2022-09-04T20:52:48.975Z,64.35
2022-09-04T20:56:01.900Z,64.78
2022-09-04T21:03:13.906Z,64.99
2022-09-04T21:04:09.033Z,65.69
2022-09-04T21:07:57.757Z,66.05
2022-09-04T21:11:43.438Z,66.62
2022-09-04T21:15:34.704Z,66.79
2022-09-04T21:19:40.603Z,67.29
2022-09-04T21:23:56.526Z,67.38
2022-09-04T21:28:28.309Z,67.93
2022-09-04T21:32:36.306Z,68.75
2022-09-04T21:36:27.672Z,68.81
2022-09-04T21:40:51.582Z,69.14
2022-09-04T21:44:46.829Z,69.34
2022-09-04T21:48:48.669Z,69.51
2022-09-04T21:52:55.745Z,69.89
2022-09-04T22:02:31.479Z,70.05
2022-09-04T22:02:43.462Z,70.08
2022-09-04T22:05:25.222Z,70.35
2022-09-04T22:13:27.236Z,70.46
2022-09-04T22:13:47.857Z,70.58
2022-09-04T22:17:50.800Z,70.67
2022-09-04T22:21:47.903Z,70.78
2022-09-04T22:25:46.107Z,71.33
2022-09-04T22:29:48.818Z,70.88
2022-09-04T22:34:14.360Z,71.57
2022-09-04T22:38:30.378Z,71.51
2022-09-04T22:42:42.553Z,71.72
2022-09-04T22:46:39.647Z,72.07
2022-09-04T22:50:51.480Z,72.50
2022-09-04T22:54:48.476Z,72.41
2022-09-04T22:58:48.330Z,72.65
2022-09-04T23:03:09.573Z,72.98
2022-09-04T23:11:42.099Z,72.60
2022-09-04T23:14:00.478Z,73.00
2022-09-04T23:15:37.271Z,73.26
2022-09-04T23:26:39.155Z,73.42
2022-09-04T23:26:46.818Z,73.49
2022-09-04T23:28:27.568Z,73.55
2022-09-04T23:32:26.379Z,73.99
2022-09-04T23:36:33.415Z,74.42
2022-09-04T23:40:31.211Z,74.44
2022-09-04T23:44:34.477Z,74.60
2022-09-04T23:48:30.826Z,74.61
2022-09-04T23:52:22.954Z,74.65
2022-09-04T23:56:26.246Z,74.73
